sensor_id;sensor_type;location;lat;lon;timestamp;P1;durP1;ratioP1;P2;durP2;ratioP2
59424;SDS011;45231;44.826;20.312;2023-03-31T00:00:10;22.52;;;15.38;;
59424;SDS011;45231;44.826;20.312;2023-03-31T00:02:40;26.10;;;16.35;;
59424;SDS011;45231;44.826;20.312;2023-03-31T00:05:07;22.88;;;16.67;;
59424;SDS011;45231;44.826;20.312;2023-03-31T00:07:33;24.02;;;15.32;;
59424;SDS011;45231;44.826;20.312;2023-03-31T00:10:02;25.35;;;16.33;;
59424;SDS011;45231;44.826;20.312;2023-03-31T00:12:29;26.70;;;17.40;;
59424;SDS011;45231;44.826;20.312;2023-03-31T00:14:55;24.50;;;16.25;;
59424;SDS011;45231;44.826;20.312;2023-03-31T00:17:21;25.63;;;16.75;;
59424;SDS011;45231;44.826;20.312;2023-03-31T00:19:47;25.13;;;16.50;;
59424;SDS011;45231;44.826;20.312;2023-03-31T00:22:16;26.33;;;17.00;;
59424;SDS011;45231;44.826;20.312;2023-03-31T00:24:46;27.73;;;16.92;;
59424;SDS011;45231;44.826;20.312;2023-03-31T00:27:12;23.20;;;15.75;;
59424;SDS011;45231;44.826;20.312;2023-03-31T00:29:38;20.87;;;15.20;;
59424;SDS011;45231;44.826;20.312;2023-03-31T00:32:06;24.38;;;15.80;;
59424;SDS011;45231;44.826;20.312;2023-03-31T00:34:32;21.42;;;14.15;;
59424;SDS011;45231;44.826;20.312;2023-03-31T00:36:58;22.65;;;12.50;;
59424;SDS011;45231;44.826;20.312;2023-03-31T00:39:27;14.60;;;8.77;;
59424;SDS011;45231;44.826;20.312;2023-03-31T00:41:56;14.88;;;8.70;;
59424;SDS011;45231;44.826;20.312;2023-03-31T00:44:22;14.50;;;7.35;;
59424;SDS011;45231;44.826;20.312;2023-03-31T00:46:54;14.68;;;7.63;;
59424;SDS011;45231;44.826;20.312;2023-03-31T00:49:26;13.80;;;6.45;;
59424;SDS011;45231;44.826;20.312;2023-03-31T00:51:55;10.95;;;5.63;;
59424;SDS011;45231;44.826;20.312;2023-03-31T00:54:22;11.40;;;4.65;;
59424;SDS011;45231;44.826;20.312;2023-03-31T00:56:50;10.90;;;4.60;;
59424;SDS011;45231;44.826;20.312;2023-03-31T00:59:19;9.15;;;3.90;;
59424;SDS011;45231;44.826;20.312;2023-03-31T01:01:47;11.55;;;4.03;;
59424;SDS011;45231;44.826;20.312;2023-03-31T01:04:14;9.77;;;3.70;;
59424;SDS011;45231;44.826;20.312;2023-03-31T01:06:48;8.68;;;3.50;;
59424;SDS011;45231;44.826;20.312;2023-03-31T01:09:16;8.98;;;3.65;;
59424;SDS011;45231;44.826;20.312;2023-03-31T01:11:43;9.70;;;3.53;;
59424;SDS011;45231;44.826;20.312;2023-03-31T01:14:10;9.23;;;3.85;;
59424;SDS011;45231;44.826;20.312;2023-03-31T01:16:37;6.75;;;3.10;;
59424;SDS011;45231;44.826;20.312;2023-03-31T01:39:56;6.72;;;2.28;;
59424;SDS011;45231;44.826;20.312;2023-03-31T01:42:27;6.53;;;2.10;;
59424;SDS011;45231;44.826;20.312;2023-03-31T01:47:32;7.20;;;2.15;;
59424;SDS011;45231;44.826;20.312;2023-03-31T01:50:05;7.60;;;2.50;;
59424;SDS011;45231;44.826;20.312;2023-03-31T01:52:44;7.72;;;2.13;;
59424;SDS011;45231;44.826;20.312;2023-03-31T01:55:13;4.80;;;2.00;;
59424;SDS011;45231;44.826;20.312;2023-03-31T01:58:02;4.90;;;1.90;;
59424;SDS011;45231;44.826;20.312;2023-03-31T02:00:31;7.22;;;2.13;;
59424;SDS011;45231;44.826;20.312;2023-03-31T02:03:00;6.88;;;2.17;;
59424;SDS011;45231;44.826;20.312;2023-03-31T02:05:32;7.13;;;1.83;;
59424;SDS011;45231;44.826;20.312;2023-03-31T02:10:29;5.65;;;2.00;;
59424;SDS011;45231;44.826;20.312;2023-03-31T02:12:56;9.77;;;2.33;;
59424;SDS011;45231;44.826;20.312;2023-03-31T02:15:24;8.93;;;2.03;;
59424;SDS011;45231;44.826;20.312;2023-03-31T02:17:52;6.88;;;1.80;;
59424;SDS011;45231;44.826;20.312;2023-03-31T02:20:20;4.80;;;2.13;;
59424;SDS011;45231;44.826;20.312;2023-03-31T02:22:51;9.05;;;2.15;;
59424;SDS011;45231;44.826;20.312;2023-03-31T02:25:20;4.75;;;1.70;;
59424;SDS011;45231;44.826;20.312;2023-03-31T02:27:52;8.52;;;2.10;;
59424;SDS011;45231;44.826;20.312;2023-03-31T02:30:20;6.57;;;2.17;;
59424;SDS011;45231;44.826;20.312;2023-03-31T02:32:46;6.43;;;2.17;;
59424;SDS011;45231;44.826;20.312;2023-03-31T02:35:14;7.93;;;2.00;;
59424;SDS011;45231;44.826;20.312;2023-03-31T02:37:41;5.50;;;2.00;;
59424;SDS011;45231;44.826;20.312;2023-03-31T02:40:09;10.93;;;2.40;;
59424;SDS011;45231;44.826;20.312;2023-03-31T02:42:37;7.43;;;2.17;;
59424;SDS011;45231;44.826;20.312;2023-03-31T02:45:04;8.48;;;2.20;;
59424;SDS011;45231;44.826;20.312;2023-03-31T02:47:30;6.38;;;2.30;;
59424;SDS011;45231;44.826;20.312;2023-03-31T02:49:57;8.80;;;2.55;;
59424;SDS011;45231;44.826;20.312;2023-03-31T02:57:38;8.40;;;2.05;;
59424;SDS011;45231;44.826;20.312;2023-03-31T03:00:45;8.70;;;2.33;;
59424;SDS011;45231;44.826;20.312;2023-03-31T03:11:01;6.32;;;2.00;;
59424;SDS011;45231;44.826;20.312;2023-03-31T03:18:43;7.32;;;2.33;;
59424;SDS011;45231;44.826;20.312;2023-03-31T03:21:09;6.70;;;2.13;;
59424;SDS011;45231;44.826;20.312;2023-03-31T03:23:35;8.13;;;2.40;;
59424;SDS011;45231;44.826;20.312;2023-03-31T03:26:01;8.82;;;2.30;;
59424;SDS011;45231;44.826;20.312;2023-03-31T03:28:27;8.52;;;2.35;;
59424;SDS011;45231;44.826;20.312;2023-03-31T03:30:53;7.20;;;2.00;;
59424;SDS011;45231;44.826;20.312;2023-03-31T03:33:19;6.50;;;2.33;;
59424;SDS011;45231;44.826;20.312;2023-03-31T03:35:49;8.98;;;2.80;;
59424;SDS011;45231;44.826;20.312;2023-03-31T03:38:15;7.60;;;2.45;;
59424;SDS011;45231;44.826;20.312;2023-03-31T03:40:41;6.22;;;2.35;;
59424;SDS011;45231;44.826;20.312;2023-03-31T03:43:07;7.10;;;2.28;;
59424;SDS011;45231;44.826;20.312;2023-03-31T03:45:33;5.43;;;2.10;;
59424;SDS011;45231;44.826;20.312;2023-03-31T03:47:59;8.63;;;2.20;;
59424;SDS011;45231;44.826;20.312;2023-03-31T03:50:25;6.43;;;2.25;;
59424;SDS011;45231;44.826;20.312;2023-03-31T03:52:51;7.35;;;2.30;;
59424;SDS011;45231;44.826;20.312;2023-03-31T03:55:18;7.53;;;2.40;;
59424;SDS011;45231;44.826;20.312;2023-03-31T03:57:44;6.95;;;2.42;;
59424;SDS011;45231;44.826;20.312;2023-03-31T04:00:10;6.25;;;2.17;;
59424;SDS011;45231;44.826;20.312;2023-03-31T04:02:36;10.07;;;2.92;;
59424;SDS011;45231;44.826;20.312;2023-03-31T04:05:02;9.25;;;2.65;;
59424;SDS011;45231;44.826;20.312;2023-03-31T04:07:29;7.75;;;2.35;;
59424;SDS011;45231;44.826;20.312;2023-03-31T04:09:55;8.07;;;2.65;;
59424;SDS011;45231;44.826;20.312;2023-03-31T04:12:21;5.88;;;1.95;;
59424;SDS011;45231;44.826;20.312;2023-03-31T04:14:47;6.43;;;2.28;;
59424;SDS011;45231;44.826;20.312;2023-03-31T04:17:13;7.77;;;2.43;;
59424;SDS011;45231;44.826;20.312;2023-03-31T04:19:40;6.05;;;2.15;;
59424;SDS011;45231;44.826;20.312;2023-03-31T04:22:06;5.38;;;1.88;;
59424;SDS011;45231;44.826;20.312;2023-03-31T04:24:36;7.60;;;1.98;;
59424;SDS011;45231;44.826;20.312;2023-03-31T04:27:03;6.28;;;1.92;;
59424;SDS011;45231;44.826;20.312;2023-03-31T04:29:31;5.50;;;1.92;;
59424;SDS011;45231;44.826;20.312;2023-03-31T04:31:58;9.85;;;1.75;;
59424;SDS011;45231;44.826;20.312;2023-03-31T04:34:25;5.43;;;2.00;;
59424;SDS011;45231;44.826;20.312;2023-03-31T04:36:58;5.43;;;2.15;;
59424;SDS011;45231;44.826;20.312;2023-03-31T04:39:27;8.25;;;2.33;;
59424;SDS011;45231;44.826;20.312;2023-03-31T04:41:55;7.10;;;2.10;;
59424;SDS011;45231;44.826;20.312;2023-03-31T04:46:47;9.15;;;2.60;;
59424;SDS011;45231;44.826;20.312;2023-03-31T04:49:13;9.50;;;2.40;;
59424;SDS011;45231;44.826;20.312;2023-03-31T04:51:40;5.05;;;2.15;;
59424;SDS011;45231;44.826;20.312;2023-03-31T04:54:06;7.47;;;2.53;;
59424;SDS011;45231;44.826;20.312;2023-03-31T04:56:32;8.05;;;3.15;;
59424;SDS011;45231;44.826;20.312;2023-03-31T04:58:58;5.57;;;2.58;;
59424;SDS011;45231;44.826;20.312;2023-03-31T05:01:24;5.85;;;2.28;;
59424;SDS011;45231;44.826;20.312;2023-03-31T05:03:50;5.57;;;2.03;;
59424;SDS011;45231;44.826;20.312;2023-03-31T05:06:16;5.00;;;2.38;;
59424;SDS011;45231;44.826;20.312;2023-03-31T05:08:42;5.88;;;2.67;;
59424;SDS011;45231;44.826;20.312;2023-03-31T05:11:09;8.38;;;2.60;;
59424;SDS011;45231;44.826;20.312;2023-03-31T05:13:35;6.63;;;2.22;;
59424;SDS011;45231;44.826;20.312;2023-03-31T05:16:08;5.78;;;2.30;;
59424;SDS011;45231;44.826;20.312;2023-03-31T05:18:36;7.18;;;2.58;;
59424;SDS011;45231;44.826;20.312;2023-03-31T05:23:35;7.40;;;2.50;;
59424;SDS011;45231;44.826;20.312;2023-03-31T05:26:01;5.85;;;1.92;;
59424;SDS011;45231;44.826;20.312;2023-03-31T05:28:27;5.40;;;1.92;;
59424;SDS011;45231;44.826;20.312;2023-03-31T05:30:53;5.70;;;2.05;;
59424;SDS011;45231;44.826;20.312;2023-03-31T05:33:19;10.02;;;2.30;;
59424;SDS011;45231;44.826;20.312;2023-03-31T05:35:45;5.82;;;2.17;;
59424;SDS011;45231;44.826;20.312;2023-03-31T05:38:11;8.40;;;2.35;;
59424;SDS011;45231;44.826;20.312;2023-03-31T05:40:37;7.60;;;2.05;;
59424;SDS011;45231;44.826;20.312;2023-03-31T05:43:03;10.63;;;2.70;;
59424;SDS011;45231;44.826;20.312;2023-03-31T05:45:29;10.57;;;2.40;;
59424;SDS011;45231;44.826;20.312;2023-03-31T05:47:55;8.02;;;2.67;;
59424;SDS011;45231;44.826;20.312;2023-03-31T05:50:22;6.78;;;3.05;;
59424;SDS011;45231;44.826;20.312;2023-03-31T05:52:48;8.70;;;4.20;;
59424;SDS011;45231;44.826;20.312;2023-03-31T05:55:14;8.43;;;4.03;;
59424;SDS011;45231;44.826;20.312;2023-03-31T05:57:40;7.57;;;3.80;;
59424;SDS011;45231;44.826;20.312;2023-03-31T06:00:06;8.43;;;3.47;;
59424;SDS011;45231;44.826;20.312;2023-03-31T06:02:35;7.40;;;3.50;;
59424;SDS011;45231;44.826;20.312;2023-03-31T06:05:01;8.18;;;3.08;;
59424;SDS011;45231;44.826;20.312;2023-03-31T06:07:27;10.13;;;3.53;;
59424;SDS011;45231;44.826;20.312;2023-03-31T06:09:54;7.78;;;3.40;;
59424;SDS011;45231;44.826;20.312;2023-03-31T06:12:20;7.60;;;3.63;;
59424;SDS011;45231;44.826;20.312;2023-03-31T06:14:46;12.70;;;3.72;;
59424;SDS011;45231;44.826;20.312;2023-03-31T06:17:12;10.50;;;3.92;;
59424;SDS011;45231;44.826;20.312;2023-03-31T06:19:38;10.57;;;4.38;;
59424;SDS011;45231;44.826;20.312;2023-03-31T06:22:04;10.18;;;4.32;;
59424;SDS011;45231;44.826;20.312;2023-03-31T06:24:30;9.88;;;4.35;;
59424;SDS011;45231;44.826;20.312;2023-03-31T06:26:56;9.07;;;4.22;;
59424;SDS011;45231;44.826;20.312;2023-03-31T06:29:24;9.82;;;4.70;;
59424;SDS011;45231;44.826;20.312;2023-03-31T06:31:51;12.27;;;4.57;;
59424;SDS011;45231;44.826;20.312;2023-03-31T06:34:17;8.38;;;3.58;;
59424;SDS011;45231;44.826;20.312;2023-03-31T06:36:43;11.50;;;4.20;;
59424;SDS011;45231;44.826;20.312;2023-03-31T06:39:09;9.63;;;3.50;;
59424;SDS011;45231;44.826;20.312;2023-03-31T06:41:35;11.00;;;4.22;;
59424;SDS011;45231;44.826;20.312;2023-03-31T06:44:02;11.30;;;3.30;;
59424;SDS011;45231;44.826;20.312;2023-03-31T06:46:29;9.02;;;3.47;;
59424;SDS011;45231;44.826;20.312;2023-03-31T06:48:55;13.15;;;3.45;;
59424;SDS011;45231;44.826;20.312;2023-03-31T06:51:21;7.35;;;3.30;;
59424;SDS011;45231;44.826;20.312;2023-03-31T06:53:47;8.90;;;3.15;;
59424;SDS011;45231;44.826;20.312;2023-03-31T06:56:13;8.15;;;3.08;;
59424;SDS011;45231;44.826;20.312;2023-03-31T06:58:39;10.65;;;2.97;;
59424;SDS011;45231;44.826;20.312;2023-03-31T07:01:05;7.85;;;2.83;;
59424;SDS011;45231;44.826;20.312;2023-03-31T07:03:31;7.97;;;2.80;;
59424;SDS011;45231;44.826;20.312;2023-03-31T07:05:58;9.88;;;2.92;;
59424;SDS011;45231;44.826;20.312;2023-03-31T07:10:54;6.60;;;2.40;;
59424;SDS011;45231;44.826;20.312;2023-03-31T07:13:21;6.60;;;2.38;;
59424;SDS011;45231;44.826;20.312;2023-03-31T07:15:48;4.80;;;1.90;;
59424;SDS011;45231;44.826;20.312;2023-03-31T07:18:14;6.68;;;2.10;;
59424;SDS011;45231;44.826;20.312;2023-03-31T07:20:41;5.07;;;1.90;;
59424;SDS011;45231;44.826;20.312;2023-03-31T07:23:07;7.00;;;2.17;;
59424;SDS011;45231;44.826;20.312;2023-03-31T07:25:33;6.43;;;2.08;;
59424;SDS011;45231;44.826;20.312;2023-03-31T07:27:59;6.15;;;1.80;;
59424;SDS011;45231;44.826;20.312;2023-03-31T07:30:26;7.43;;;2.40;;
59424;SDS011;45231;44.826;20.312;2023-03-31T07:32:52;8.32;;;1.80;;
59424;SDS011;45231;44.826;20.312;2023-03-31T07:35:18;7.88;;;1.90;;
59424;SDS011;45231;44.826;20.312;2023-03-31T07:37:46;8.15;;;2.72;;
59424;SDS011;45231;44.826;20.312;2023-03-31T07:42:40;7.75;;;2.67;;
59424;SDS011;45231;44.826;20.312;2023-03-31T07:45:07;7.53;;;1.95;;
59424;SDS011;45231;44.826;20.312;2023-03-31T07:47:33;6.65;;;1.83;;
59424;SDS011;45231;44.826;20.312;2023-03-31T07:52:25;5.40;;;2.13;;
59424;SDS011;45231;44.826;20.312;2023-03-31T07:57:17;7.05;;;2.00;;
59424;SDS011;45231;44.826;20.312;2023-03-31T07:59:46;6.68;;;1.85;;
59424;SDS011;45231;44.826;20.312;2023-03-31T08:02:13;8.05;;;1.83;;
59424;SDS011;45231;44.826;20.312;2023-03-31T08:04:40;6.28;;;1.70;;
59424;SDS011;45231;44.826;20.312;2023-03-31T08:07:07;10.73;;;2.13;;
59424;SDS011;45231;44.826;20.312;2023-03-31T08:09:33;6.32;;;1.70;;
59424;SDS011;45231;44.826;20.312;2023-03-31T08:12:00;5.70;;;1.67;;
59424;SDS011;45231;44.826;20.312;2023-03-31T08:14:26;8.90;;;2.10;;
59424;SDS011;45231;44.826;20.312;2023-03-31T08:16:52;8.10;;;1.80;;
59424;SDS011;45231;44.826;20.312;2023-03-31T08:19:19;8.13;;;2.03;;
59424;SDS011;45231;44.826;20.312;2023-03-31T08:21:46;10.38;;;1.70;;
59424;SDS011;45231;44.826;20.312;2023-03-31T08:24:12;7.53;;;2.10;;
59424;SDS011;45231;44.826;20.312;2023-03-31T08:26:39;6.57;;;1.80;;
59424;SDS011;45231;44.826;20.312;2023-03-31T08:29:06;4.53;;;1.50;;
59424;SDS011;45231;44.826;20.312;2023-03-31T08:31:32;7.47;;;1.80;;
59424;SDS011;45231;44.826;20.312;2023-03-31T08:33:58;6.97;;;1.85;;
59424;SDS011;45231;44.826;20.312;2023-03-31T08:36:24;6.53;;;1.80;;
59424;SDS011;45231;44.826;20.312;2023-03-31T08:38:51;5.13;;;1.98;;
59424;SDS011;45231;44.826;20.312;2023-03-31T08:41:26;7.38;;;1.73;;
59424;SDS011;45231;44.826;20.312;2023-03-31T08:43:54;6.32;;;1.60;;
59424;SDS011;45231;44.826;20.312;2023-03-31T08:46:21;7.00;;;1.80;;
59424;SDS011;45231;44.826;20.312;2023-03-31T08:48:49;7.65;;;1.73;;
59424;SDS011;45231;44.826;20.312;2023-03-31T08:51:19;6.72;;;1.67;;
59424;SDS011;45231;44.826;20.312;2023-03-31T08:54:01;7.18;;;1.70;;
59424;SDS011;45231;44.826;20.312;2023-03-31T08:56:27;7.82;;;1.50;;
59424;SDS011;45231;44.826;20.312;2023-03-31T08:58:55;7.85;;;1.80;;
59424;SDS011;45231;44.826;20.312;2023-03-31T09:09:00;6.15;;;1.65;;
59424;SDS011;45231;44.826;20.312;2023-03-31T09:11:34;6.13;;;1.90;;
59424;SDS011;45231;44.826;20.312;2023-03-31T09:19:31;25.50;;;2.70;;
59424;SDS011;45231;44.826;20.312;2023-03-31T09:21:58;5.72;;;1.90;;
59424;SDS011;45231;44.826;20.312;2023-03-31T09:24:30;6.75;;;1.90;;
59424;SDS011;45231;44.826;20.312;2023-03-31T09:26:58;6.38;;;1.50;;
59424;SDS011;45231;44.826;20.312;2023-03-31T09:31:53;7.28;;;1.92;;
59424;SDS011;45231;44.826;20.312;2023-03-31T09:34:31;6.63;;;1.90;;
59424;SDS011;45231;44.826;20.312;2023-03-31T09:36:58;8.55;;;2.33;;
59424;SDS011;45231;44.826;20.312;2023-03-31T09:39:24;6.88;;;1.80;;
59424;SDS011;45231;44.826;20.312;2023-03-31T09:41:51;6.45;;;1.77;;
59424;SDS011;45231;44.826;20.312;2023-03-31T09:47:05;6.90;;;1.60;;
59424;SDS011;45231;44.826;20.312;2023-03-31T09:49:33;5.63;;;1.95;;
59424;SDS011;45231;44.826;20.312;2023-03-31T09:52:05;7.68;;;1.80;;
59424;SDS011;45231;44.826;20.312;2023-03-31T09:54:43;6.88;;;2.22;;
59424;SDS011;45231;44.826;20.312;2023-03-31T09:57:12;6.32;;;1.95;;
59424;SDS011;45231;44.826;20.312;2023-03-31T09:59:38;9.93;;;2.10;;
59424;SDS011;45231;44.826;20.312;2023-03-31T10:04:46;5.57;;;1.58;;
59424;SDS011;45231;44.826;20.312;2023-03-31T10:07:12;6.45;;;2.00;;
59424;SDS011;45231;44.826;20.312;2023-03-31T10:09:44;5.95;;;1.80;;
59424;SDS011;45231;44.826;20.312;2023-03-31T10:14:46;7.30;;;1.73;;
59424;SDS011;45231;44.826;20.312;2023-03-31T10:17:23;7.85;;;2.25;;
59424;SDS011;45231;44.826;20.312;2023-03-31T10:20:04;9.05;;;1.85;;
59424;SDS011;45231;44.826;20.312;2023-03-31T10:22:31;6.05;;;2.15;;
59424;SDS011;45231;44.826;20.312;2023-03-31T10:27:35;7.23;;;1.70;;
59424;SDS011;45231;44.826;20.312;2023-03-31T10:30:07;5.30;;;1.80;;
59424;SDS011;45231;44.826;20.312;2023-03-31T10:32:37;7.82;;;1.70;;
59424;SDS011;45231;44.826;20.312;2023-03-31T10:35:05;32.92;;;4.03;;
59424;SDS011;45231;44.826;20.312;2023-03-31T10:37:33;9.70;;;2.45;;
59424;SDS011;45231;44.826;20.312;2023-03-31T10:40:02;10.88;;;2.10;;
59424;SDS011;45231;44.826;20.312;2023-03-31T10:42:33;10.07;;;2.15;;
59424;SDS011;45231;44.826;20.312;2023-03-31T10:45:12;5.60;;;1.90;;
59424;SDS011;45231;44.826;20.312;2023-03-31T10:47:39;9.20;;;2.00;;
59424;SDS011;45231;44.826;20.312;2023-03-31T10:50:12;5.80;;;2.00;;
59424;SDS011;45231;44.826;20.312;2023-03-31T10:52:43;5.68;;;1.75;;
59424;SDS011;45231;44.826;20.312;2023-03-31T10:55:13;7.35;;;2.35;;
59424;SDS011;45231;44.826;20.312;2023-03-31T10:57:46;5.93;;;2.03;;
59424;SDS011;45231;44.826;20.312;2023-03-31T11:02:58;8.55;;;2.15;;
59424;SDS011;45231;44.826;20.312;2023-03-31T11:15:24;8.60;;;1.60;;
59424;SDS011;45231;44.826;20.312;2023-03-31T11:36:01;4.75;;;1.80;;
59424;SDS011;45231;44.826;20.312;2023-03-31T11:41:20;6.30;;;1.80;;
59424;SDS011;45231;44.826;20.312;2023-03-31T11:43:52;5.82;;;1.63;;
59424;SDS011;45231;44.826;20.312;2023-03-31T11:46:31;7.47;;;1.90;;
59424;SDS011;45231;44.826;20.312;2023-03-31T11:49:00;6.70;;;2.08;;
59424;SDS011;45231;44.826;20.312;2023-03-31T11:51:41;6.15;;;2.00;;
59424;SDS011;45231;44.826;20.312;2023-03-31T11:54:11;5.05;;;1.73;;
59424;SDS011;45231;44.826;20.312;2023-03-31T11:56:39;5.13;;;1.65;;
59424;SDS011;45231;44.826;20.312;2023-03-31T11:59:06;6.65;;;1.80;;
59424;SDS011;45231;44.826;20.312;2023-03-31T12:01:36;9.05;;;1.75;;
59424;SDS011;45231;44.826;20.312;2023-03-31T12:06:40;7.97;;;1.70;;
59424;SDS011;45231;44.826;20.312;2023-03-31T12:09:26;6.57;;;1.70;;
59424;SDS011;45231;44.826;20.312;2023-03-31T12:12:00;7.25;;;1.50;;
59424;SDS011;45231;44.826;20.312;2023-03-31T12:17:03;9.40;;;1.88;;
59424;SDS011;45231;44.826;20.312;2023-03-31T12:19:52;5.88;;;2.10;;
59424;SDS011;45231;44.826;20.312;2023-03-31T12:22:42;9.25;;;2.15;;
59424;SDS011;45231;44.826;20.312;2023-03-31T12:25:12;6.07;;;1.73;;
59424;SDS011;45231;44.826;20.312;2023-03-31T12:27:39;5.80;;;1.63;;
59424;SDS011;45231;44.826;20.312;2023-03-31T12:32:35;8.63;;;1.90;;
59424;SDS011;45231;44.826;20.312;2023-03-31T12:50:44;7.85;;;2.15;;
59424;SDS011;45231;44.826;20.312;2023-03-31T13:01:34;6.05;;;1.90;;
59424;SDS011;45231;44.826;20.312;2023-03-31T13:03:42;6.93;;;1.95;;
59424;SDS011;45231;44.826;20.312;2023-03-31T13:08:54;9.35;;;1.85;;
59424;SDS011;45231;44.826;20.312;2023-03-31T13:11:21;7.53;;;1.70;;
59424;SDS011;45231;44.826;20.312;2023-03-31T13:16:35;7.45;;;2.10;;
59424;SDS011;45231;44.826;20.312;2023-03-31T13:21:27;8.60;;;1.98;;
59424;SDS011;45231;44.826;20.312;2023-03-31T13:34:22;9.02;;;2.17;;
59424;SDS011;45231;44.826;20.312;2023-03-31T13:36:58;5.22;;;2.00;;
59424;SDS011;45231;44.826;20.312;2023-03-31T14:03:21;5.75;;;1.95;;
59424;SDS011;45231;44.826;20.312;2023-03-31T14:11:17;8.88;;;2.42;;
59424;SDS011;45231;44.826;20.312;2023-03-31T14:13:43;8.50;;;2.30;;
59424;SDS011;45231;44.826;20.312;2023-03-31T14:18:36;10.68;;;2.33;;
59424;SDS011;45231;44.826;20.312;2023-03-31T14:27:02;10.48;;;2.13;;
59424;SDS011;45231;44.826;20.312;2023-03-31T14:39:08;6.95;;;2.00;;
59424;SDS011;45231;44.826;20.312;2023-03-31T14:41:35;7.68;;;2.03;;
59424;SDS011;45231;44.826;20.312;2023-03-31T14:44:03;7.70;;;2.05;;
59424;SDS011;45231;44.826;20.312;2023-03-31T14:46:30;8.52;;;2.25;;
59424;SDS011;45231;44.826;20.312;2023-03-31T14:48:57;5.97;;;2.38;;
59424;SDS011;45231;44.826;20.312;2023-03-31T14:51:30;6.40;;;1.83;;
59424;SDS011;45231;44.826;20.312;2023-03-31T14:53:57;7.53;;;2.00;;
59424;SDS011;45231;44.826;20.312;2023-03-31T14:56:33;9.50;;;2.33;;
59424;SDS011;45231;44.826;20.312;2023-03-31T14:59:01;8.52;;;2.60;;
59424;SDS011;45231;44.826;20.312;2023-03-31T15:01:28;9.45;;;2.30;;
59424;SDS011;45231;44.826;20.312;2023-03-31T15:03:58;7.25;;;2.17;;
59424;SDS011;45231;44.826;20.312;2023-03-31T15:06:25;8.20;;;2.28;;
59424;SDS011;45231;44.826;20.312;2023-03-31T15:08:52;7.57;;;2.45;;
59424;SDS011;45231;44.826;20.312;2023-03-31T15:11:20;5.32;;;2.10;;
59424;SDS011;45231;44.826;20.312;2023-03-31T15:13:46;7.30;;;2.05;;
59424;SDS011;45231;44.826;20.312;2023-03-31T15:18:52;4.55;;;1.88;;
59424;SDS011;45231;44.826;20.312;2023-03-31T15:21:25;11.20;;;2.50;;
59424;SDS011;45231;44.826;20.312;2023-03-31T15:23:56;7.55;;;2.00;;
59424;SDS011;45231;44.826;20.312;2023-03-31T15:26:29;9.60;;;2.15;;
59424;SDS011;45231;44.826;20.312;2023-03-31T15:28:57;6.00;;;2.03;;
59424;SDS011;45231;44.826;20.312;2023-03-31T15:31:26;7.30;;;2.20;;
59424;SDS011;45231;44.826;20.312;2023-03-31T15:33:54;11.98;;;2.65;;
59424;SDS011;45231;44.826;20.312;2023-03-31T15:38:52;5.88;;;2.20;;
59424;SDS011;45231;44.826;20.312;2023-03-31T15:41:19;10.85;;;3.08;;
59424;SDS011;45231;44.826;20.312;2023-03-31T15:43:47;9.77;;;2.60;;
59424;SDS011;45231;44.826;20.312;2023-03-31T15:46:23;8.00;;;2.30;;
59424;SDS011;45231;44.826;20.312;2023-03-31T15:48:53;10.55;;;2.65;;
59424;SDS011;45231;44.826;20.312;2023-03-31T15:53:50;8.88;;;2.67;;
59424;SDS011;45231;44.826;20.312;2023-03-31T15:56:26;10.00;;;3.55;;
59424;SDS011;45231;44.826;20.312;2023-03-31T15:58:56;7.95;;;2.67;;
59424;SDS011;45231;44.826;20.312;2023-03-31T16:01:23;7.22;;;2.45;;
59424;SDS011;45231;44.826;20.312;2023-03-31T16:03:53;8.25;;;2.70;;
59424;SDS011;45231;44.826;20.312;2023-03-31T16:06:41;8.40;;;2.58;;
59424;SDS011;45231;44.826;20.312;2023-03-31T16:14:07;9.52;;;3.08;;
59424;SDS011;45231;44.826;20.312;2023-03-31T16:16:35;10.05;;;2.65;;
59424;SDS011;45231;44.826;20.312;2023-03-31T16:19:02;8.50;;;2.50;;
59424;SDS011;45231;44.826;20.312;2023-03-31T16:21:38;6.85;;;2.22;;
59424;SDS011;45231;44.826;20.312;2023-03-31T16:24:05;7.93;;;2.40;;
59424;SDS011;45231;44.826;20.312;2023-03-31T16:26:31;6.10;;;2.38;;
59424;SDS011;45231;44.826;20.312;2023-03-31T16:28:57;8.07;;;2.47;;
59424;SDS011;45231;44.826;20.312;2023-03-31T16:31:37;11.30;;;2.55;;
59424;SDS011;45231;44.826;20.312;2023-03-31T16:34:08;8.60;;;2.55;;
59424;SDS011;45231;44.826;20.312;2023-03-31T16:36:35;10.00;;;2.38;;
59424;SDS011;45231;44.826;20.312;2023-03-31T16:39:01;13.48;;;3.13;;
59424;SDS011;45231;44.826;20.312;2023-03-31T16:41:29;10.10;;;2.50;;
59424;SDS011;45231;44.826;20.312;2023-03-31T16:43:56;9.85;;;2.63;;
59424;SDS011;45231;44.826;20.312;2023-03-31T16:46:22;9.82;;;2.33;;
59424;SDS011;45231;44.826;20.312;2023-03-31T16:48:49;8.02;;;2.30;;
59424;SDS011;45231;44.826;20.312;2023-03-31T16:53:42;11.77;;;2.83;;
59424;SDS011;45231;44.826;20.312;2023-03-31T16:56:08;15.27;;;2.90;;
59424;SDS011;45231;44.826;20.312;2023-03-31T16:58:36;17.70;;;2.97;;
59424;SDS011;45231;44.826;20.312;2023-03-31T17:01:03;8.88;;;2.67;;
59424;SDS011;45231;44.826;20.312;2023-03-31T17:03:31;15.15;;;3.88;;
59424;SDS011;45231;44.826;20.312;2023-03-31T17:05:57;9.57;;;2.35;;
59424;SDS011;45231;44.826;20.312;2023-03-31T17:08:24;11.13;;;2.45;;
59424;SDS011;45231;44.826;20.312;2023-03-31T17:13:17;6.32;;;2.38;;
59424;SDS011;45231;44.826;20.312;2023-03-31T17:15:44;8.68;;;2.38;;
59424;SDS011;45231;44.826;20.312;2023-03-31T17:18:10;9.07;;;2.28;;
59424;SDS011;45231;44.826;20.312;2023-03-31T17:20:36;9.27;;;2.63;;
59424;SDS011;45231;44.826;20.312;2023-03-31T17:23:02;8.05;;;2.92;;
59424;SDS011;45231;44.826;20.312;2023-03-31T17:25:28;10.95;;;2.70;;
59424;SDS011;45231;44.826;20.312;2023-03-31T17:30:22;13.38;;;2.95;;
59424;SDS011;45231;44.826;20.312;2023-03-31T17:32:48;7.93;;;2.83;;
59424;SDS011;45231;44.826;20.312;2023-03-31T17:35:14;11.73;;;3.33;;
59424;SDS011;45231;44.826;20.312;2023-03-31T17:37:48;15.02;;;3.97;;
59424;SDS011;45231;44.826;20.312;2023-03-31T17:40:17;8.07;;;3.67;;
59424;SDS011;45231;44.826;20.312;2023-03-31T17:42:43;8.38;;;3.42;;
59424;SDS011;45231;44.826;20.312;2023-03-31T17:45:11;9.95;;;3.38;;
59424;SDS011;45231;44.826;20.312;2023-03-31T17:47:38;14.05;;;3.33;;
59424;SDS011;45231;44.826;20.312;2023-03-31T17:50:04;12.55;;;3.70;;
59424;SDS011;45231;44.826;20.312;2023-03-31T17:52:30;16.83;;;3.85;;
59424;SDS011;45231;44.826;20.312;2023-03-31T17:54:57;9.02;;;3.83;;
59424;SDS011;45231;44.826;20.312;2023-03-31T17:57:30;9.88;;;3.33;;
59424;SDS011;45231;44.826;20.312;2023-03-31T17:59:57;10.80;;;3.83;;
59424;SDS011;45231;44.826;20.312;2023-03-31T18:02:23;12.88;;;3.33;;
59424;SDS011;45231;44.826;20.312;2023-03-31T18:04:49;8.40;;;3.33;;
59424;SDS011;45231;44.826;20.312;2023-03-31T18:09:42;6.78;;;3.20;;
59424;SDS011;45231;44.826;20.312;2023-03-31T18:12:09;11.18;;;3.47;;
59424;SDS011;45231;44.826;20.312;2023-03-31T18:14:35;10.35;;;4.55;;
59424;SDS011;45231;44.826;20.312;2023-03-31T18:17:02;20.45;;;8.57;;
59424;SDS011;45231;44.826;20.312;2023-03-31T18:19:28;12.45;;;5.63;;
59424;SDS011;45231;44.826;20.312;2023-03-31T18:21:54;12.98;;;5.53;;
59424;SDS011;45231;44.826;20.312;2023-03-31T18:24:20;13.25;;;5.28;;
59424;SDS011;45231;44.826;20.312;2023-03-31T18:26:46;18.60;;;6.95;;
59424;SDS011;45231;44.826;20.312;2023-03-31T18:29:13;35.67;;;13.07;;
59424;SDS011;45231;44.826;20.312;2023-03-31T18:31:39;28.15;;;9.68;;
59424;SDS011;45231;44.826;20.312;2023-03-31T18:36:32;36.13;;;22.58;;